createdAt,value
2017-10-21T00:00:56.583Z,6.17
2017-10-21T00:03:24.016Z,9.70
2017-10-21T00:05:51.456Z,15.47
2017-10-21T00:08:19.742Z,10.97
2017-10-21T00:10:47.189Z,16.20
2017-10-21T00:13:15.176Z,11.47
2017-10-21T00:15:42.731Z,16.47
2017-10-21T00:18:10.167Z,13.80
2017-10-21T00:20:37.611Z,7.43
2017-10-21T00:23:05.320Z,9.83
2017-10-21T00:25:33.260Z,9.83
2017-10-21T00:28:01.264Z,12.03
2017-10-21T00:30:29.727Z,10.23
2017-10-21T00:32:57.156Z,10.77
2017-10-21T00:35:24.591Z,7.10
2017-10-21T00:37:52.287Z,10.00
2017-10-21T00:40:19.986Z,16.67
2017-10-21T00:42:48.184Z,11.83
2017-10-21T00:45:16.810Z,17.57
2017-10-21T00:47:44.254Z,11.20
2017-10-21T00:50:11.704Z,8.73
2017-10-21T00:52:39.143Z,11.37
2017-10-21T00:55:06.591Z,11.77
2017-10-21T00:57:34.916Z,23.63
2017-10-21T01:00:02.355Z,10.43
2017-10-21T01:02:29.787Z,5.90
2017-10-21T01:04:57.228Z,10.83
2017-10-21T01:07:25.194Z,13.10
2017-10-21T01:09:52.652Z,10.57
2017-10-21T01:12:20.095Z,11.03
2017-10-21T01:14:48.314Z,13.60
2017-10-21T01:17:18.235Z,9.20
2017-10-21T01:19:45.683Z,4.83
2017-10-21T01:22:13.115Z,8.27
2017-10-21T01:24:41.303Z,8.47
2017-10-21T01:27:08.727Z,10.17
2017-10-21T01:29:36.946Z,11.00
2017-10-21T01:32:04.370Z,10.13
2017-10-21T01:34:33.129Z,10.77
2017-10-21T01:37:00.564Z,12.83
2017-10-21T01:39:28.231Z,5.00
2017-10-21T01:41:55.662Z,17.73
2017-10-21T01:44:23.649Z,13.10
2017-10-21T01:46:51.109Z,13.23
2017-10-21T01:49:18.560Z,11.93
2017-10-21T01:51:45.999Z,11.87
2017-10-21T01:54:13.446Z,10.93
2017-10-21T01:56:40.929Z,11.37
2017-10-21T01:59:08.371Z,9.07
2017-10-21T02:01:36.255Z,7.93
2017-10-21T02:04:03.668Z,8.27
2017-10-21T02:06:31.890Z,8.67
2017-10-21T02:08:59.788Z,8.70
2017-10-21T02:11:27.239Z,6.83
2017-10-21T02:13:54.707Z,13.33
2017-10-21T02:16:22.205Z,11.87
2017-10-21T02:18:50.085Z,11.07
2017-10-21T02:21:17.546Z,8.93
2017-10-21T02:23:44.990Z,8.63
2017-10-21T02:26:12.513Z,8.43
2017-10-21T02:28:40.741Z,11.70
2017-10-21T02:31:08.207Z,14.57
2017-10-21T02:33:35.642Z,11.00
2017-10-21T02:36:03.118Z,8.50
2017-10-21T02:38:30.971Z,10.30
2017-10-21T02:40:58.424Z,8.13
2017-10-21T02:43:26.137Z,10.07
2017-10-21T02:45:53.587Z,16.77
2017-10-21T02:48:21.014Z,10.23
2017-10-21T02:50:48.462Z,13.40
2017-10-21T02:53:17.018Z,3.77
2017-10-21T02:55:45.298Z,10.03
2017-10-21T02:58:12.722Z,4.27
2017-10-21T03:00:40.176Z,6.20
2017-10-21T03:03:08.418Z,6.07
2017-10-21T03:05:36.259Z,8.77
2017-10-21T03:08:04.433Z,8.13
2017-10-21T03:10:31.880Z,7.87
2017-10-21T03:12:59.359Z,9.37
2017-10-21T03:15:26.796Z,14.33
2017-10-21T03:17:54.519Z,9.80
2017-10-21T03:20:21.944Z,6.50
2017-10-21T03:22:49.636Z,13.87
2017-10-21T03:25:17.082Z,18.00
2017-10-21T03:27:45.774Z,18.00
2017-10-21T03:30:15.707Z,13.77
2017-10-21T03:32:43.131Z,13.20
2017-10-21T03:35:10.578Z,18.00
2017-10-21T03:37:38.028Z,23.63
2017-10-21T03:40:08.072Z,23.40
2017-10-21T03:42:35.494Z,19.80
2017-10-21T03:45:05.573Z,18.03
2017-10-21T03:47:33.011Z,19.47
2017-10-21T03:50:00.462Z,15.50
2017-10-21T03:52:29.117Z,19.03
2017-10-21T03:54:59.130Z,16.83
2017-10-21T03:57:26.563Z,18.17
2017-10-21T03:59:54.774Z,11.70
2017-10-21T04:02:22.618Z,18.40
2017-10-21T04:04:50.058Z,13.83
2017-10-21T04:07:19.412Z,17.97
2017-10-21T04:09:46.856Z,15.30
2017-10-21T04:12:14.762Z,11.40
2017-10-21T04:14:42.817Z,12.50
2017-10-21T04:17:11.138Z,16.43
2017-10-21T04:19:39.339Z,11.27
2017-10-21T04:22:06.791Z,9.70
2017-10-21T04:24:34.217Z,12.83
2017-10-21T04:27:03.135Z,11.43
2017-10-21T04:29:30.685Z,11.60
2017-10-21T04:31:58.140Z,13.30
2017-10-21T04:34:26.336Z,16.73
2017-10-21T04:36:53.998Z,12.47
2017-10-21T04:39:21.942Z,14.47
2017-10-21T04:41:50.683Z,11.07
2017-10-21T04:44:18.129Z,11.00
2017-10-21T04:46:45.573Z,13.53
2017-10-21T04:49:13.106Z,15.17
2017-10-21T04:51:41.125Z,14.07
2017-10-21T04:54:08.958Z,15.97
2017-10-21T04:56:36.970Z,14.63
2017-10-21T04:59:04.411Z,12.17
2017-10-21T05:01:31.857Z,6.00
2017-10-21T05:03:59.305Z,12.20
2017-10-21T05:06:27.015Z,5.83
2017-10-21T05:08:54.425Z,10.00
2017-10-21T05:11:22.449Z,8.10
2017-10-21T05:13:49.882Z,8.57
2017-10-21T05:16:17.330Z,13.17
2017-10-21T05:21:39.355Z,9.07
2017-10-21T05:24:06.782Z,11.53
2017-10-21T05:26:34.994Z,6.30
2017-10-21T05:29:02.449Z,7.07
2017-10-21T05:31:29.906Z,14.50
2017-10-21T05:33:57.908Z,12.20
2017-10-21T05:36:25.339Z,15.23
2017-10-21T05:38:53.568Z,21.17
2017-10-21T05:41:21.541Z,13.80
2017-10-21T05:43:50.743Z,18.97
2017-10-21T05:46:18.957Z,14.27
2017-10-21T05:48:47.849Z,25.40
2017-10-21T05:51:15.300Z,21.40
2017-10-21T05:53:42.751Z,21.07
2017-10-21T05:56:10.714Z,24.83
2017-10-21T05:58:38.150Z,17.30
2017-10-21T06:01:06.955Z,11.00
2017-10-21T06:03:37.152Z,16.00
2017-10-21T06:06:04.583Z,13.60
2017-10-21T06:08:32.011Z,18.20
2017-10-21T06:10:59.461Z,17.43
2017-10-21T06:13:26.894Z,17.70
2017-10-21T06:15:54.916Z,15.20
2017-10-21T06:18:22.359Z,16.30
2017-10-21T06:20:49.810Z,11.47
2017-10-21T06:23:17.250Z,9.67
2017-10-21T06:25:44.695Z,13.07
2017-10-21T06:28:12.131Z,12.50
2017-10-21T06:30:40.919Z,9.23
2017-10-21T06:33:09.133Z,13.27
2017-10-21T06:35:36.588Z,12.73
2017-10-21T06:38:04.025Z,10.53
2017-10-21T06:40:32.227Z,16.97
2017-10-21T06:42:59.939Z,18.80
2017-10-21T06:45:27.668Z,9.20
2017-10-21T06:47:55.105Z,6.83
2017-10-21T06:50:22.543Z,7.57
2017-10-21T06:52:49.978Z,10.37
2017-10-21T06:55:18.438Z,11.80
2017-10-21T06:57:46.302Z,7.67
2017-10-21T07:00:13.738Z,12.30
2017-10-21T07:02:41.620Z,9.37
2017-10-21T07:05:09.044Z,11.47
2017-10-21T07:07:37.071Z,9.90
2017-10-21T07:10:04.496Z,10.57
2017-10-21T07:12:31.939Z,9.33
2017-10-21T07:14:59.391Z,14.90
2017-10-21T07:17:26.841Z,11.90
2017-10-21T07:19:54.268Z,13.43
2017-10-21T07:22:22.479Z,7.13
2017-10-21T07:24:50.545Z,5.60
2017-10-21T07:27:17.968Z,9.40
2017-10-21T07:29:46.167Z,12.67
2017-10-21T07:32:16.039Z,10.03
2017-10-21T07:34:43.694Z,11.40
2017-10-21T07:37:11.133Z,14.27
2017-10-21T07:39:38.570Z,10.37
2017-10-21T07:42:06.587Z,8.87
2017-10-21T07:44:34.044Z,11.60
2017-10-21T07:47:02.250Z,8.50
2017-10-21T07:49:29.684Z,9.03
2017-10-21T07:51:57.890Z,9.93
2017-10-21T07:54:25.320Z,7.83
2017-10-21T07:56:54.172Z,8.60
2017-10-21T07:59:21.615Z,5.70
2017-10-21T08:01:49.060Z,12.73
2017-10-21T08:04:16.490Z,5.17
2017-10-21T08:06:44.713Z,10.23
2017-10-21T08:09:12.542Z,6.77
2017-10-21T08:11:41.300Z,5.37
2017-10-21T08:14:11.347Z,7.87
2017-10-21T08:16:39.640Z,4.57
2017-10-21T08:19:07.059Z,9.67
2017-10-21T08:21:35.279Z,10.40
2017-10-21T08:24:02.717Z,5.23
2017-10-21T08:26:30.161Z,3.97
2017-10-21T08:28:57.596Z,9.03
2017-10-21T08:31:25.036Z,6.97
2017-10-21T08:33:52.478Z,5.87
2017-10-21T08:36:19.948Z,8.60
2017-10-21T08:38:48.905Z,6.83
2017-10-21T08:41:16.368Z,5.07
2017-10-21T08:43:43.822Z,6.20
2017-10-21T08:46:11.338Z,8.35
2017-10-21T08:48:39.556Z,9.32
2017-10-21T08:51:07.024Z,7.53
2017-10-21T08:53:34.478Z,6.20
2017-10-21T08:56:02.507Z,9.27
2017-10-21T08:58:30.715Z,5.05
2017-10-21T09:01:00.782Z,6.80
2017-10-21T09:03:28.795Z,7.00
2017-10-21T09:05:56.227Z,7.32
2017-10-21T09:08:26.047Z,5.87
2017-10-21T09:10:54.238Z,4.78
2017-10-21T09:13:21.689Z,5.78
2017-10-21T09:15:51.536Z,7.05
2017-10-21T09:18:18.982Z,7.22
2017-10-21T09:20:46.422Z,8.38
2017-10-21T09:23:14.489Z,5.33
2017-10-21T09:25:41.922Z,9.77
2017-10-21T09:28:10.145Z,5.10
2017-10-21T09:30:37.586Z,13.63
2017-10-21T09:33:05.032Z,10.40
2017-10-21T09:35:33.398Z,7.57
2017-10-21T09:38:01.606Z,10.80
2017-10-21T09:40:29.611Z,8.10
2017-10-21T09:42:57.065Z,6.50
2017-10-21T09:45:24.507Z,8.00
2017-10-21T09:47:51.953Z,6.30
2017-10-21T09:50:20.117Z,8.45
2017-10-21T09:52:47.971Z,8.80
2017-10-21T09:55:16.664Z,12.02
2017-10-21T09:57:44.704Z,7.32
2017-10-21T10:00:12.911Z,9.45
2017-10-21T10:02:40.813Z,11.68
2017-10-21T10:05:08.260Z,11.65
2017-10-21T10:07:36.774Z,12.73
2017-10-21T10:10:04.200Z,7.43
2017-10-21T10:12:32.069Z,7.22
2017-10-21T10:15:00.062Z,11.70
2017-10-21T10:17:27.502Z,10.93
2017-10-21T10:19:54.941Z,9.18
2017-10-21T10:22:22.590Z,11.37
2017-10-21T10:24:50.045Z,10.17
2017-10-21T10:27:17.978Z,7.93
2017-10-21T10:29:46.579Z,9.43
2017-10-21T10:32:14.786Z,6.40
2017-10-21T10:34:42.226Z,9.37
2017-10-21T10:37:09.694Z,10.27
2017-10-21T10:39:37.112Z,8.20
2017-10-21T10:42:05.320Z,11.57
2017-10-21T10:44:32.792Z,6.93
2017-10-21T10:47:00.266Z,5.80
2017-10-21T10:49:27.710Z,7.80
2017-10-21T10:51:55.162Z,8.27
2017-10-21T10:54:23.053Z,11.33
2017-10-21T10:56:50.500Z,6.90
2017-10-21T10:59:18.372Z,9.27
2017-10-21T11:01:47.328Z,12.93
2017-10-21T11:04:14.746Z,8.27
2017-10-21T11:06:43.291Z,10.63
2017-10-21T11:09:10.724Z,12.55
2017-10-21T11:11:39.039Z,10.13
2017-10-21T11:14:07.252Z,10.63
2017-10-21T11:16:35.449Z,8.47
2017-10-21T11:19:02.896Z,10.03
2017-10-21T11:21:30.333Z,12.53
2017-10-21T11:23:58.982Z,12.87
2017-10-21T11:26:26.426Z,12.83
2017-10-21T11:28:55.686Z,12.50
2017-10-21T11:31:23.128Z,11.70
2017-10-21T11:33:52.011Z,13.87
2017-10-21T11:36:19.704Z,14.83
2017-10-21T11:38:47.148Z,9.63
2017-10-21T11:41:15.807Z,9.30
2017-10-21T11:43:43.781Z,11.02
2017-10-21T11:46:11.209Z,9.80
2017-10-21T11:48:38.659Z,9.53
2017-10-21T11:51:06.104Z,8.67
2017-10-21T11:53:33.869Z,9.82
2017-10-21T11:56:01.715Z,10.25
2017-10-21T11:58:29.915Z,9.90
2017-10-21T12:00:57.380Z,10.90
2017-10-21T12:03:25.480Z,11.93
2017-10-21T12:05:53.331Z,10.17
2017-10-21T12:08:21.202Z,9.93
2017-10-21T12:10:48.655Z,10.63
2017-10-21T12:13:16.100Z,9.97
2017-10-21T12:15:43.537Z,12.23
2017-10-21T12:18:11.411Z,10.77
2017-10-21T12:20:39.436Z,13.65
2017-10-21T12:23:07.650Z,13.13
2017-10-21T12:25:35.106Z,11.67
2017-10-21T12:28:02.563Z,12.57
2017-10-21T12:30:30.055Z,13.23
2017-10-21T12:32:57.851Z,10.63
2017-10-21T12:35:26.060Z,11.87
2017-10-21T12:37:53.527Z,13.23
2017-10-21T12:40:20.969Z,9.47
2017-10-21T12:42:50.995Z,11.93
2017-10-21T12:45:18.439Z,10.13
2017-10-21T12:47:45.890Z,10.17
2017-10-21T12:50:14.254Z,6.90
2017-10-21T12:52:42.468Z,9.17
2017-10-21T12:55:10.447Z,9.50
2017-10-21T12:57:37.891Z,8.60
2017-10-21T13:00:05.337Z,9.33
2017-10-21T13:02:32.790Z,9.27
2017-10-21T13:05:00.226Z,7.10
2017-10-21T13:07:28.430Z,9.23
2017-10-21T13:09:55.870Z,10.00
2017-10-21T13:12:23.311Z,7.47
2017-10-21T13:14:51.627Z,6.75
2017-10-21T13:17:20.289Z,6.90
2017-10-21T13:19:47.726Z,5.90
2017-10-21T13:22:16.503Z,7.37
2017-10-21T13:24:45.051Z,5.32
2017-10-21T13:27:12.524Z,7.37
2017-10-21T13:29:40.193Z,5.60
2017-10-21T13:32:08.459Z,5.10
2017-10-21T13:34:35.904Z,4.68
2017-10-21T13:37:03.339Z,5.45
2017-10-21T13:39:30.786Z,7.20
2017-10-21T13:41:58.227Z,5.90
2017-10-21T13:44:26.460Z,14.18
2017-10-21T13:46:54.338Z,8.05
2017-10-21T13:49:21.790Z,7.43
2017-10-21T13:51:49.226Z,7.20
2017-10-21T13:54:16.671Z,10.20
2017-10-21T13:56:44.102Z,8.13
2017-10-21T13:59:11.551Z,5.32
2017-10-21T14:01:39.774Z,4.93
2017-10-21T14:04:07.232Z,5.37
2017-10-21T14:06:35.281Z,4.15
2017-10-21T14:09:02.750Z,4.03
2017-10-21T14:11:30.318Z,3.40
2017-10-21T14:13:58.046Z,4.57
2017-10-21T14:16:26.242Z,2.40
2017-10-21T14:18:54.206Z,2.00
2017-10-21T14:21:21.646Z,2.45
2017-10-21T14:23:49.086Z,1.73
2017-10-21T14:26:17.281Z,2.03
2017-10-21T14:28:44.726Z,1.77
2017-10-21T14:31:13.358Z,2.27
2017-10-21T14:33:40.810Z,1.97
2017-10-21T14:36:08.237Z,4.03
2017-10-21T14:38:35.682Z,5.23
2017-10-21T14:41:04.469Z,4.20
2017-10-21T14:43:32.679Z,3.00
2017-10-21T14:46:00.115Z,3.03
2017-10-21T14:48:28.120Z,3.03
2017-10-21T14:50:55.545Z,3.30
2017-10-21T14:53:22.987Z,2.30
2017-10-21T14:55:51.206Z,2.47
2017-10-21T14:58:19.210Z,2.73
2017-10-21T15:00:47.218Z,2.20
2017-10-21T15:03:14.658Z,2.17
2017-10-21T15:05:42.862Z,2.17
2017-10-21T15:08:10.295Z,1.70
2017-10-21T15:10:38.914Z,1.90
2017-10-21T15:13:06.913Z,2.07
2017-10-21T15:15:34.364Z,1.90
2017-10-21T15:18:02.219Z,1.73
2017-10-21T15:20:30.073Z,1.70
2017-10-21T15:22:58.071Z,1.90
2017-10-21T15:25:25.511Z,2.50
2017-10-21T15:27:52.956Z,1.97
2017-10-21T15:30:20.420Z,2.90
2017-10-21T15:32:47.866Z,2.33
2017-10-21T15:35:15.309Z,2.93
2017-10-21T15:37:43.578Z,2.37
2017-10-21T15:40:11.040Z,3.77
2017-10-21T15:42:39.040Z,3.07
2017-10-21T15:45:06.477Z,2.30
2017-10-21T15:47:33.898Z,2.37
2017-10-21T15:50:02.148Z,3.40
2017-10-21T15:52:29.574Z,2.57
2017-10-21T15:55:03.526Z,2.73
2017-10-21T15:57:34.482Z,2.80
2017-10-21T16:00:02.696Z,5.23
2017-10-21T16:02:30.140Z,3.70
2017-10-21T16:04:57.586Z,4.43
2017-10-21T16:07:25.019Z,5.70
2017-10-21T16:09:53.774Z,3.00
2017-10-21T16:12:21.211Z,4.87
2017-10-21T16:14:48.662Z,3.90
2017-10-21T16:17:16.095Z,2.50
2017-10-21T16:19:44.724Z,2.83
2017-10-21T16:22:12.165Z,3.43
2017-10-21T16:24:39.632Z,3.73
2017-10-21T16:27:07.084Z,2.80
2017-10-21T16:29:34.885Z,2.63
2017-10-21T16:32:02.315Z,3.03
2017-10-21T16:34:29.753Z,2.97
2017-10-21T16:36:57.619Z,2.30
2017-10-21T16:39:25.072Z,2.03
2017-10-21T16:41:53.055Z,2.90
2017-10-21T16:44:20.503Z,3.43
2017-10-21T16:46:47.925Z,2.33
2017-10-21T16:49:16.138Z,2.80
2017-10-21T16:51:43.558Z,2.60
2017-10-21T16:54:12.339Z,2.53
2017-10-21T16:56:40.574Z,3.80
2017-10-21T16:59:08.014Z,2.33
2017-10-21T17:01:35.455Z,5.50
2017-10-21T17:04:02.912Z,4.03
2017-10-21T17:06:31.095Z,3.30
2017-10-21T17:08:58.534Z,3.67
2017-10-21T17:11:25.975Z,6.63
2017-10-21T17:13:54.198Z,3.40
2017-10-21T17:16:22.070Z,5.23
2017-10-21T17:18:49.523Z,5.70
2017-10-21T17:21:16.974Z,7.63
2017-10-21T17:23:44.411Z,9.27
2017-10-21T17:26:11.847Z,4.90
2017-10-21T17:28:40.057Z,7.13
2017-10-21T17:31:08.079Z,4.37
2017-10-21T17:33:35.527Z,4.90
2017-10-21T17:36:02.971Z,5.43
2017-10-21T17:38:30.952Z,4.23
2017-10-21T17:40:58.678Z,3.20
2017-10-21T17:43:26.103Z,3.90
2017-10-21T17:45:54.316Z,6.23
2017-10-21T17:48:21.770Z,3.70
2017-10-21T17:50:49.263Z,4.37
2017-10-21T17:53:16.695Z,4.03
2017-10-21T17:55:44.136Z,5.20
2017-10-21T17:58:11.558Z,5.33
2017-10-21T18:00:39.784Z,9.47
2017-10-21T18:03:07.224Z,3.07
2017-10-21T18:05:35.270Z,7.73
2017-10-21T18:08:03.470Z,3.80
2017-10-21T18:10:30.923Z,5.33
2017-10-21T18:12:58.790Z,4.27
2017-10-21T18:15:26.472Z,4.53
2017-10-21T18:17:53.885Z,7.97
2017-10-21T18:20:22.109Z,6.17
2017-10-21T18:22:50.081Z,4.37
2017-10-21T18:25:17.538Z,2.93
2017-10-21T18:27:45.006Z,5.90
2017-10-21T18:30:12.951Z,7.87
2017-10-21T18:32:40.396Z,6.57
2017-10-21T18:35:07.839Z,2.10
2017-10-21T18:37:35.539Z,9.10
2017-10-21T18:40:03.381Z,8.77
2017-10-21T18:42:30.810Z,6.03
2017-10-21T18:44:59.031Z,4.37
2017-10-21T18:47:26.498Z,6.10
2017-10-21T18:49:53.952Z,7.77
2017-10-21T18:52:21.385Z,6.63
2017-10-21T18:54:48.846Z,5.80
2017-10-21T18:57:16.326Z,6.23
2017-10-21T18:59:43.799Z,4.83
2017-10-21T19:02:11.419Z,9.17
2017-10-21T19:04:39.287Z,4.93
2017-10-21T19:07:08.616Z,5.80
2017-10-21T19:09:36.095Z,3.47
2017-10-21T19:12:04.180Z,5.50
2017-10-21T19:14:33.281Z,4.47
2017-10-21T19:17:01.496Z,5.57
2017-10-21T19:19:29.212Z,5.73
2017-10-21T19:21:57.032Z,9.23
2017-10-21T19:24:24.472Z,6.40
2017-10-21T19:26:51.908Z,10.17
2017-10-21T19:29:19.366Z,14.13
2017-10-21T19:31:47.566Z,7.70
2017-10-21T19:34:15.551Z,7.37
2017-10-21T19:36:43.018Z,6.33
2017-10-21T19:39:10.978Z,3.00
2017-10-21T19:41:38.427Z,8.03
2017-10-21T19:44:05.870Z,6.37
2017-10-21T19:46:33.326Z,6.43
2017-10-21T19:49:00.750Z,7.53
2017-10-21T19:51:32.734Z,9.73
2017-10-21T19:54:00.183Z,10.53
2017-10-21T19:56:27.640Z,8.30
2017-10-21T19:58:55.843Z,10.90
2017-10-21T20:01:23.282Z,6.47
2017-10-21T20:03:50.728Z,9.47
2017-10-21T20:06:18.931Z,7.93
2017-10-21T20:08:46.780Z,9.00
2017-10-21T20:11:14.965Z,9.97
2017-10-21T20:13:43.021Z,4.33
2017-10-21T20:16:10.472Z,7.63
2017-10-21T20:18:38.684Z,12.33
2017-10-21T20:21:06.125Z,8.73
2017-10-21T20:23:34.252Z,11.73
2017-10-21T20:26:01.701Z,9.13
2017-10-21T20:28:29.230Z,6.90
2017-10-21T20:30:56.692Z,11.13
2017-10-21T20:33:24.719Z,9.67
2017-10-21T20:35:52.984Z,8.23
2017-10-21T20:38:21.208Z,7.93
2017-10-21T20:40:48.649Z,8.23
2017-10-21T20:43:16.077Z,9.20
2017-10-21T20:45:44.837Z,6.83
2017-10-21T20:48:12.849Z,5.27
2017-10-21T20:50:40.286Z,5.17
2017-10-21T20:53:08.480Z,9.20
2017-10-21T20:55:35.918Z,8.10
2017-10-21T20:58:04.119Z,7.40
2017-10-21T21:00:32.456Z,10.63
2017-10-21T21:02:59.891Z,8.37
2017-10-21T21:05:27.335Z,5.40
2017-10-21T21:07:55.627Z,5.47
2017-10-21T21:10:23.495Z,8.93
2017-10-21T21:12:51.359Z,7.77
2017-10-21T21:15:18.790Z,7.87
2017-10-21T21:17:46.224Z,8.47
2017-10-21T21:20:13.670Z,7.37
2017-10-21T21:22:41.878Z,10.33
2017-10-21T21:25:09.314Z,9.13
2017-10-21T21:27:36.743Z,9.53
2017-10-21T21:30:06.583Z,11.87
2017-10-21T21:32:34.010Z,13.70
2017-10-21T21:35:01.462Z,16.03
2017-10-21T21:37:28.897Z,11.47
2017-10-21T21:39:56.341Z,10.20
2017-10-21T21:42:23.766Z,9.90
2017-10-21T21:44:51.196Z,7.43
2017-10-21T21:47:18.639Z,13.97
2017-10-21T21:49:46.063Z,13.13
2017-10-21T21:52:13.510Z,10.27
2017-10-21T21:54:41.000Z,11.47
2017-10-21T21:57:08.429Z,8.20
2017-10-21T21:59:35.857Z,10.53
2017-10-21T22:02:03.308Z,11.40
2017-10-21T22:04:31.502Z,16.03
2017-10-21T22:06:58.938Z,14.00
2017-10-21T22:09:27.167Z,12.23
2017-10-21T22:11:54.603Z,6.17
2017-10-21T22:14:22.038Z,12.33
2017-10-21T22:16:49.691Z,6.13
2017-10-21T22:19:17.871Z,10.83
2017-10-21T22:21:45.310Z,12.17
2017-10-21T22:24:13.519Z,15.07
2017-10-21T22:26:40.963Z,11.47
2017-10-21T22:29:09.152Z,9.77
2017-10-21T22:31:36.596Z,19.60
2017-10-21T22:34:04.029Z,15.47
2017-10-21T22:36:33.075Z,13.63
2017-10-21T22:39:00.499Z,6.77
2017-10-21T22:41:28.707Z,7.57
2017-10-21T22:43:56.222Z,12.60
2017-10-21T22:46:24.423Z,14.87
2017-10-21T22:48:52.825Z,5.93
2017-10-21T22:51:20.283Z,9.73
2017-10-21T22:53:47.723Z,13.20
2017-10-21T22:56:15.159Z,13.63
2017-10-21T22:58:43.422Z,13.23
2017-10-21T23:01:12.378Z,9.33
2017-10-21T23:03:39.835Z,13.23
2017-10-21T23:06:08.886Z,11.83
2017-10-21T23:08:37.363Z,10.73
2017-10-21T23:11:04.805Z,14.73
2017-10-21T23:13:33.010Z,10.47
2017-10-21T23:16:00.454Z,10.67
2017-10-21T23:18:28.352Z,15.40
2017-10-21T23:20:55.791Z,8.23
2017-10-21T23:23:23.232Z,13.03
2017-10-21T23:25:50.675Z,14.43
2017-10-21T23:28:19.578Z,11.47
2017-10-21T23:30:47.121Z,16.23
2017-10-21T23:33:15.332Z,9.27
2017-10-21T23:35:43.331Z,12.83
2017-10-21T23:38:11.482Z,10.13
2017-10-21T23:40:38.930Z,7.60
2017-10-21T23:43:06.759Z,12.07
2017-10-21T23:45:34.194Z,14.77
2017-10-21T23:48:01.627Z,7.77
2017-10-21T23:50:29.076Z,5.57
2017-10-21T23:52:56.498Z,11.97
2017-10-21T23:55:24.825Z,10.17
2017-10-21T23:57:52.531Z,9.10
